Aérodrome :







RETROUVEZ-NOUS SUR...

 
LOGIN :

S'inscrire | Disclaimer

   EN    FR    IT 

 









Légende :    VFR   VFR Marginal   IFR   IFR Intensif   IFR Très Intensif
Visi : 
Plafond : 
>= 8 km
>= 3000ft
5 à 8 km
1000 à 3000 ft
1500m à 5 km
500 à 1000 ft
800 à 1500m
200 à 500 ft
< 800m
< 200 ft
Symboles :   Orages  Brouillard  Fortes neiges  Fortes précipitations  Vent > 20 kt






- Altitude de l'aérodrome : 199 ft
- Code IATA : YRQ


CYRQ - Trois-Rivières

DERNIER METAR :
  • 271300Z AUTO VRB02KT 9SM CLR 24/19 A3010 RMK SLP193 DENSITY ALT 1100FT

METARs EXPIRÉS :
  • 271200Z AUTO VRB02KT 9SM CLR 22/19 A3010 RMK SLP193 DENSITY ALT 800FT
  • 271100Z AUTO 05003KT 9SM SCT160 20/19 A3009 RMK SLP191 DENSITY ALT 600FT

TAF TAF CYRQ
Valide du 27 à 14h jusqu'au 28 à 02h UTC


271330Z 2714/2802 VRB03KT P6SM FEW008 SCT100
BECMG 2715/2717 20010KT
FM271700 20010KT P6SM SCT080
TEMPO 2717/2802 P6SM -SHRA BKN080
PROB30 2717/2722 2SM TSRA BR OVC070CB RMK FCST BASED ON AUTO OBS. NXT FCST BY 272000Z
FIR CZUL / Amérique du Nord



MET'MAP, la Météo Aéronautique d'un coup d'oeil ! - Copyright ORBIFLY Décembre 2007 - Disclaimer

ORBIFLY MET'MAP TEAM :

Programmation & Développement : Alexandra Zaïnal
Sur une idée originale de : Baudouin d'Aumeries
Assistance à la programmation : Marc-Olivier Méhu
Soutien technique & logistique : Manuel Goepfert

Contact : metmap@orbifly.com




SOURCES & CREDITS :

   NOAA